createdAt,value
2023-03-08T00:02:07.573Z,8.90
2023-03-08T00:07:29.962Z,9.08
2023-03-08T00:12:52.138Z,8.30
2023-03-08T00:18:14.402Z,8.23
2023-03-08T00:23:36.566Z,7.95
2023-03-08T00:29:00.477Z,8.00
2023-03-08T00:34:23.606Z,7.90
2023-03-08T00:39:47.231Z,8.50
2023-03-08T00:45:09.415Z,8.30
2023-03-08T00:50:31.816Z,8.28
2023-03-08T00:56:05.477Z,7.03
2023-03-08T01:01:31.213Z,7.30
2023-03-08T01:06:53.719Z,7.35
2023-03-08T01:12:16.824Z,7.22
2023-03-08T01:17:39.175Z,7.70
2023-03-08T01:23:01.494Z,7.83
2023-03-08T01:28:23.791Z,6.95
2023-03-08T01:33:46.094Z,6.67
2023-03-08T01:39:09.319Z,6.65
2023-03-08T01:44:36.300Z,6.65
2023-03-08T01:49:59.324Z,6.70
2023-03-08T01:55:25.785Z,6.53
2023-03-08T02:00:49.744Z,7.30
2023-03-08T02:06:12.741Z,6.28
2023-03-08T02:11:37.831Z,6.62
2023-03-08T02:17:00.374Z,6.40
2023-03-08T02:22:33.296Z,6.87
2023-03-08T02:27:55.947Z,5.58
2023-03-08T02:33:18.983Z,4.50
2023-03-08T02:38:42.027Z,5.67
2023-03-08T02:44:04.662Z,4.42
2023-03-08T02:49:28.491Z,5.45
2023-03-08T02:54:50.704Z,4.40
2023-03-08T03:00:14.043Z,3.75
2023-03-08T03:05:36.446Z,3.37
2023-03-08T03:10:58.804Z,3.20
2023-03-08T03:16:24.322Z,2.80
2023-03-08T03:21:46.916Z,3.77
2023-03-08T03:27:09.720Z,3.85
2023-03-08T03:32:32.111Z,3.17
2023-03-08T03:37:54.836Z,3.75
2023-03-08T03:43:17.035Z,2.60
2023-03-08T03:48:40.933Z,3.25
2023-03-08T03:54:06.416Z,2.85
2023-03-08T03:59:28.359Z,2.75
2023-03-08T04:04:51.286Z,2.72
2023-03-08T04:10:14.849Z,2.58
2023-03-08T04:15:38.253Z,2.35
2023-03-08T04:21:01.157Z,2.27
2023-03-08T04:26:24.616Z,2.98
2023-03-08T04:31:48.361Z,2.25
2023-03-08T04:37:10.804Z,2.10
2023-03-08T04:42:33.110Z,3.00
2023-03-08T04:47:55.303Z,1.77
2023-03-08T04:53:17.843Z,2.10
2023-03-08T04:58:42.468Z,2.15
2023-03-08T05:04:06.019Z,2.10
2023-03-08T05:09:28.238Z,1.98
2023-03-08T05:14:50.414Z,2.00
2023-03-08T05:20:13.543Z,2.20
2023-03-08T05:25:35.923Z,2.00
2023-03-08T05:30:59.945Z,2.35
2023-03-08T05:36:24.258Z,1.80
2023-03-08T05:41:48.885Z,3.10
2023-03-08T05:47:11.372Z,2.33
2023-03-08T05:52:34.797Z,2.58
2023-03-08T05:57:57.827Z,2.42
2023-03-08T06:03:20.464Z,2.85
2023-03-08T06:08:42.881Z,2.58
2023-03-08T06:14:05.121Z,2.35
2023-03-08T06:19:28.060Z,2.77
2023-03-08T06:24:50.447Z,3.02
2023-03-08T06:30:13.003Z,3.15
2023-03-08T06:35:35.381Z,3.08
2023-03-08T06:40:57.852Z,3.25
2023-03-08T06:46:26.827Z,3.80
2023-03-08T06:51:49.167Z,2.83
2023-03-08T06:57:11.575Z,4.75
2023-03-08T07:02:34.168Z,5.00
2023-03-08T07:07:56.360Z,5.20
2023-03-08T07:13:18.601Z,4.83
2023-03-08T07:18:41.141Z,4.75
2023-03-08T07:24:04.952Z,6.25
2023-03-08T07:29:27.691Z,6.65
2023-03-08T07:34:50.252Z,5.90
2023-03-08T07:40:13.287Z,5.00
2023-03-08T07:45:35.825Z,5.97
2023-03-08T07:50:59.521Z,6.85
2023-03-08T07:56:22.126Z,6.25
2023-03-08T08:01:44.543Z,6.33
2023-03-08T08:07:08.580Z,6.12
2023-03-08T08:12:31.388Z,4.92
2023-03-08T08:17:53.586Z,4.50
2023-03-08T08:23:17.639Z,3.65
2023-03-08T08:28:40.114Z,3.42
2023-03-08T08:34:03.595Z,2.70
2023-03-08T08:39:25.930Z,3.05
2023-03-08T08:44:48.187Z,2.20
2023-03-08T08:50:12.948Z,2.40
2023-03-08T08:55:34.749Z,2.37
2023-03-08T09:00:57.808Z,2.35
2023-03-08T09:06:21.359Z,2.30
2023-03-08T09:11:54.230Z,1.90
2023-03-08T09:17:09.084Z,1.92
2023-03-08T09:22:31.558Z,1.87
2023-03-08T09:27:55.588Z,1.62
2023-03-08T09:33:18.465Z,1.80
2023-03-08T09:38:40.896Z,2.30
2023-03-08T09:44:46.098Z,1.60
2023-03-08T09:50:28.132Z,1.50
2023-03-08T09:56:01.245Z,1.40
2023-03-08T10:01:44.008Z,1.90
2023-03-08T10:07:30.089Z,1.77
2023-03-08T10:13:21.026Z,2.45
2023-03-08T10:18:56.637Z,2.10
2023-03-08T10:24:33.830Z,1.20
2023-03-08T10:29:58.501Z,1.75
2023-03-08T10:35:22.190Z,2.25
2023-03-08T10:40:44.551Z,2.42
2023-03-08T10:46:14.838Z,2.80
2023-03-08T10:51:42.280Z,2.08
2023-03-08T10:57:08.268Z,1.67
2023-03-08T11:02:36.119Z,1.82
2023-03-08T11:08:05.636Z,1.92
2023-03-08T11:13:48.212Z,2.10
2023-03-08T11:19:36.540Z,2.00
2023-03-08T11:25:26.066Z,1.75
2023-03-08T11:31:02.761Z,1.90
2023-03-08T11:36:38.054Z,1.67
2023-03-08T11:42:08.287Z,1.65
2023-03-08T11:48:16.395Z,1.90
2023-03-08T11:54:02.665Z,2.50
2023-03-08T11:59:58.682Z,3.00
2023-03-08T12:06:00.198Z,3.40
2023-03-08T12:11:27.872Z,3.72
2023-03-08T12:17:04.093Z,4.30
2023-03-08T12:23:00.729Z,3.97
2023-03-08T12:28:44.572Z,4.70
2023-03-08T12:34:07.634Z,3.80
2023-03-08T12:39:45.466Z,3.77
2023-03-08T12:45:15.490Z,4.70
2023-03-08T12:50:39.611Z,3.40
2023-03-08T12:56:18.130Z,3.53
2023-03-08T13:01:50.773Z,3.53
2023-03-08T13:07:50.913Z,3.60
2023-03-08T13:19:25.153Z,3.60
2023-03-08T13:25:10.875Z,3.67
2023-03-08T13:30:47.544Z,3.10
2023-03-08T13:36:29.060Z,3.37
2023-03-08T13:41:54.206Z,4.20
2023-03-08T13:47:33.188Z,4.20
2023-03-08T13:52:57.432Z,3.57
2023-03-08T13:58:34.969Z,3.40
2023-03-08T14:04:01.677Z,3.15
2023-03-08T14:09:24.110Z,3.53
2023-03-08T14:14:59.875Z,2.60
2023-03-08T14:20:31.582Z,3.17
2023-03-08T14:25:55.534Z,3.10
2023-03-08T14:31:34.605Z,2.93
2023-03-08T14:37:02.192Z,2.47
2023-03-08T14:42:53.070Z,2.50
2023-03-08T14:48:37.209Z,2.90
2023-03-08T14:54:15.734Z,2.70
2023-03-08T14:59:38.196Z,3.00
2023-03-08T15:05:01.946Z,2.92
2023-03-08T15:10:34.293Z,2.85
2023-03-08T15:15:57.186Z,3.30
2023-03-08T15:21:20.325Z,3.77
2023-03-08T15:26:45.061Z,2.75
2023-03-08T15:32:08.368Z,3.02
2023-03-08T15:37:32.438Z,3.45
2023-03-08T15:42:55.073Z,3.22
2023-03-08T15:48:22.543Z,3.55
2023-03-08T15:53:45.234Z,3.62
2023-03-08T15:59:08.756Z,3.90
2023-03-08T16:04:31.829Z,3.70
2023-03-08T16:09:54.365Z,4.42
2023-03-08T16:15:16.895Z,4.10
2023-03-08T16:20:39.574Z,7.33
2023-03-08T16:26:16.953Z,4.20
2023-03-08T16:31:40.395Z,3.83
2023-03-08T16:37:05.814Z,3.90
2023-03-08T16:42:35.752Z,3.95
2023-03-08T16:47:59.047Z,3.08
2023-03-08T16:53:21.627Z,3.70
2023-03-08T16:58:44.814Z,3.85
2023-03-08T17:04:09.024Z,3.42
2023-03-08T17:09:31.551Z,3.58
2023-03-08T17:14:55.011Z,3.83
2023-03-08T17:20:18.288Z,4.05
2023-03-08T17:25:41.333Z,4.15
2023-03-08T17:31:04.488Z,3.40
2023-03-08T17:36:28.573Z,26.65
2023-03-08T17:41:51.689Z,9.20
2023-03-08T17:47:14.220Z,4.93
2023-03-08T17:52:36.426Z,7.40
2023-03-08T17:57:58.829Z,7.57
2023-03-08T18:03:22.101Z,7.20
2023-03-08T18:08:45.586Z,7.90
2023-03-08T18:14:08.354Z,7.50
2023-03-08T18:19:32.345Z,7.78
2023-03-08T18:24:55.149Z,7.67
2023-03-08T18:30:18.114Z,9.53
2023-03-08T18:35:40.823Z,9.43
2023-03-08T18:41:03.120Z,10.00
2023-03-08T18:46:27.682Z,11.00
2023-03-08T18:51:52.464Z,10.57
2023-03-08T18:57:15.009Z,10.55
2023-03-08T19:02:37.293Z,11.37
2023-03-08T19:07:59.694Z,10.07
2023-03-08T19:13:21.873Z,47.50
2023-03-08T19:18:44.319Z,20.55
2023-03-08T19:24:07.506Z,12.13
2023-03-08T19:29:34.341Z,11.03
2023-03-08T19:34:58.054Z,11.40
2023-03-08T19:40:21.339Z,10.97
2023-03-08T19:45:43.932Z,11.30
2023-03-08T19:51:06.217Z,11.65
2023-03-08T19:56:33.369Z,12.90
2023-03-08T20:01:56.614Z,13.37
2023-03-08T20:07:19.719Z,12.43
2023-03-08T20:12:41.916Z,13.30
2023-03-08T20:18:04.225Z,13.67
2023-03-08T20:23:27.124Z,12.78
2023-03-08T20:28:49.453Z,14.53
2023-03-08T20:34:12.014Z,14.15
2023-03-08T20:39:34.316Z,46.47
2023-03-08T20:44:56.580Z,16.70
2023-03-08T20:50:19.112Z,17.23
2023-03-08T20:55:43.488Z,17.17
2023-03-08T21:01:05.748Z,15.97
2023-03-08T21:06:35.848Z,15.48
2023-03-08T21:11:59.168Z,15.55
2023-03-08T21:17:23.114Z,16.17
2023-03-08T21:22:45.356Z,16.33
2023-03-08T21:28:07.711Z,16.27
2023-03-08T21:33:31.695Z,16.02
2023-03-08T21:39:00.556Z,67.20
2023-03-08T21:44:27.509Z,19.57
2023-03-08T21:49:50.221Z,20.13
2023-03-08T21:55:12.837Z,19.53
2023-03-08T22:00:35.347Z,18.70
2023-03-08T22:05:57.603Z,22.43
2023-03-08T22:11:19.982Z,19.62
2023-03-08T22:16:44.236Z,18.57
2023-03-08T22:22:06.782Z,18.07
2023-03-08T22:27:31.602Z,18.10
2023-03-08T22:32:53.767Z,15.63
2023-03-08T22:38:17.610Z,16.40
2023-03-08T22:43:40.462Z,16.93
2023-03-08T22:49:07.233Z,16.57
2023-03-08T22:54:32.945Z,18.10
2023-03-08T22:59:55.125Z,19.45
2023-03-08T23:05:24.206Z,18.90
2023-03-08T23:10:46.993Z,19.27
2023-03-08T23:16:26.732Z,22.85
2023-03-08T23:22:05.828Z,27.95
2023-03-08T23:27:28.368Z,32.15
2023-03-08T23:33:06.777Z,33.53
2023-03-08T23:38:29.549Z,35.73
2023-03-08T23:43:53.722Z,35.48
2023-03-08T23:49:17.552Z,33.58
2023-03-08T23:54:39.837Z,31.77
